createdAt,value
2022-12-31T00:05:05.813Z,6.23
2022-12-31T00:43:49.978Z,7.06
2022-12-31T01:05:36.984Z,7.63
2022-12-31T01:27:22.699Z,7.95
2022-12-31T01:49:23.639Z,8.28
2022-12-31T02:11:25.231Z,8.67
2022-12-31T02:43:49.676Z,9.27
2022-12-31T03:05:39.326Z,9.67
2022-12-31T03:27:25.032Z,10.04
2022-12-31T03:49:10.707Z,10.26
2022-12-31T04:10:56.541Z,10.33
2022-12-31T04:32:42.287Z,10.32
2022-12-31T04:54:28.007Z,10.46
2022-12-31T05:16:13.765Z,10.35
2022-12-31T05:43:43.089Z,10.05
2022-12-31T06:05:28.715Z,10.03
2022-12-31T06:27:14.343Z,10.03
2022-12-31T06:49:00.410Z,10.14
2022-12-31T07:10:52.009Z,10.27
2022-12-31T07:32:52.183Z,10.47
2022-12-31T07:54:37.940Z,10.99
2022-12-31T08:16:24.707Z,11.53
2022-12-31T08:38:18.589Z,11.91
2022-12-31T09:00:12.192Z,12.29
2022-12-31T09:21:59.046Z,12.74
2022-12-31T09:44:14.550Z,13.30
2022-12-31T10:06:21.278Z,14.60
2022-12-31T10:28:26.686Z,15.65
2022-12-31T10:50:50.306Z,15.78
2022-12-31T11:13:06.218Z,16.03
2022-12-31T11:35:19.164Z,16.21
2022-12-31T11:57:15.345Z,16.06
2022-12-31T12:19:09.363Z,16.08
2022-12-31T12:41:01.323Z,16.30
2022-12-31T13:03:21.409Z,16.37
2022-12-31T13:25:25.310Z,16.31
2022-12-31T13:47:16.921Z,16.26
2022-12-31T14:09:02.723Z,16.22
2022-12-31T14:44:15.697Z,16.19
2022-12-31T15:06:08.998Z,16.08
2022-12-31T15:27:52.620Z,15.92
2022-12-31T15:49:42.647Z,15.94
2022-12-31T16:11:29.758Z,15.95
2022-12-31T16:33:14.813Z,16.02
2022-12-31T16:54:58.750Z,16.13
2022-12-31T17:16:59.568Z,16.02
2022-12-31T17:43:44.739Z,15.96
2022-12-31T18:05:30.543Z,15.99
2022-12-31T18:27:19.561Z,16.12
2022-12-31T18:49:05.542Z,16.27
2022-12-31T19:10:53.721Z,16.40
2022-12-31T19:32:39.407Z,16.44
2022-12-31T19:54:25.205Z,16.49
2022-12-31T20:16:13.388Z,16.38
2022-12-31T20:37:59.161Z,16.33
2022-12-31T20:59:44.950Z,16.33
2022-12-31T21:21:30.773Z,16.40
2022-12-31T21:43:17.289Z,16.42
2022-12-31T22:05:05.687Z,16.23
2022-12-31T22:26:56.849Z,15.72
2022-12-31T22:48:43.410Z,15.14
2022-12-31T23:10:46.609Z,14.70
2022-12-31T23:32:32.293Z,14.65
2022-12-31T23:54:18.111Z,14.48
